createdAt,value
2022-12-25T00:00:33.125Z,15.10
2022-12-25T00:02:59.666Z,15.93
2022-12-25T00:05:26.066Z,14.85
2022-12-25T00:07:52.738Z,15.50
2022-12-25T00:10:19.112Z,15.70
2022-12-25T00:12:45.498Z,15.00
2022-12-25T00:15:11.892Z,15.15
2022-12-25T00:17:38.222Z,14.52
2022-12-25T00:20:04.818Z,16.55
2022-12-25T00:22:31.340Z,15.48
2022-12-25T00:24:57.695Z,16.02
2022-12-25T00:27:24.105Z,16.30
2022-12-25T00:29:50.510Z,14.45
2022-12-25T00:32:16.861Z,14.68
2022-12-25T00:34:43.413Z,15.10
2022-12-25T00:37:09.781Z,14.88
2022-12-25T00:39:36.175Z,16.40
2022-12-25T00:42:20.783Z,17.05
2022-12-25T00:44:48.238Z,17.02
2022-12-25T00:47:15.262Z,17.08
2022-12-25T00:49:42.155Z,17.20
2022-12-25T00:52:08.837Z,16.27
2022-12-25T00:54:35.730Z,16.70
2022-12-25T00:57:02.278Z,16.17
2022-12-25T00:59:31.032Z,16.58
2022-12-25T01:02:17.497Z,15.98
2022-12-25T01:04:44.096Z,17.10
2022-12-25T01:14:06.814Z,15.02
2022-12-25T01:16:33.268Z,15.77
2022-12-25T01:18:59.721Z,15.75
2022-12-25T01:21:26.168Z,15.88
2022-12-25T01:23:53.008Z,15.85
2022-12-25T01:26:20.388Z,17.27
2022-12-25T01:28:46.790Z,15.32
2022-12-25T01:31:15.466Z,15.73
2022-12-25T01:33:42.811Z,16.77
2022-12-25T01:36:16.777Z,17.08
2022-12-25T01:38:43.721Z,18.00
2022-12-25T01:41:10.648Z,17.60
2022-12-25T01:43:55.883Z,18.25
2022-12-25T01:46:22.372Z,17.75
2022-12-25T01:48:49.037Z,20.38
2022-12-25T01:51:27.889Z,18.73
2022-12-25T01:53:55.980Z,20.33
2022-12-25T01:56:22.524Z,20.40
2022-12-25T01:58:49.064Z,19.45
2022-12-25T02:01:15.607Z,17.58
2022-12-25T02:03:42.509Z,18.83
2022-12-25T02:06:09.018Z,18.45
2022-12-25T02:08:35.420Z,19.40
2022-12-25T02:11:01.843Z,20.55
2022-12-25T02:13:28.262Z,20.05
2022-12-25T02:15:54.681Z,20.55
2022-12-25T02:18:24.848Z,20.67
2022-12-25T02:21:09.127Z,21.83
2022-12-25T02:23:50.932Z,21.33
2022-12-25T02:26:17.432Z,22.67
2022-12-25T02:29:04.039Z,23.27
2022-12-25T02:31:49.931Z,25.77
2022-12-25T02:34:20.830Z,24.73
2022-12-25T02:36:57.080Z,24.88
2022-12-25T02:39:45.265Z,27.17
2022-12-25T02:42:18.308Z,26.10
2022-12-25T02:45:04.599Z,25.45
2022-12-25T02:47:51.846Z,26.65
2022-12-25T02:50:37.655Z,25.83
2022-12-25T02:53:23.014Z,26.65
2022-12-25T02:56:08.546Z,24.05
2022-12-25T03:01:39.323Z,25.80
2022-12-25T03:04:26.537Z,25.23
2022-12-25T03:07:01.889Z,23.50
2022-12-25T03:09:49.899Z,26.58
2022-12-25T03:12:18.499Z,26.08
2022-12-25T03:15:03.755Z,25.67
2022-12-25T03:17:31.061Z,26.05
2022-12-25T03:20:16.429Z,25.60
2022-12-25T03:23:02.285Z,25.13
2022-12-25T03:25:47.634Z,25.50
2022-12-25T03:28:14.379Z,23.85
2022-12-25T03:30:59.199Z,23.10
2022-12-25T03:34:00.818Z,24.80
2022-12-25T03:37:12.962Z,24.60
2022-12-25T03:39:54.938Z,24.75
2022-12-25T03:42:48.026Z,25.55
2022-12-25T03:45:54.970Z,24.83
2022-12-25T03:48:40.187Z,25.27
2022-12-25T03:51:30.803Z,23.80
2022-12-25T03:54:17.655Z,25.10
2022-12-25T03:57:02.496Z,25.33
2022-12-25T03:59:47.437Z,23.52
2022-12-25T04:02:32.590Z,23.83
2022-12-25T04:05:17.780Z,22.65
2022-12-25T04:08:02.599Z,21.25
2022-12-25T04:10:47.347Z,22.50
2022-12-25T04:13:33.391Z,20.70
2022-12-25T04:16:18.302Z,20.85
2022-12-25T04:19:03.359Z,19.08
2022-12-25T04:21:48.138Z,19.73
2022-12-25T04:24:33.053Z,18.58
2022-12-25T04:27:17.976Z,18.80
2022-12-25T04:30:02.911Z,17.23
2022-12-25T04:32:48.204Z,16.42
2022-12-25T04:35:33.061Z,15.02
2022-12-25T04:37:59.493Z,13.60
2022-12-25T04:40:25.867Z,13.32
2022-12-25T04:42:52.861Z,13.32
2022-12-25T04:45:19.786Z,12.52
2022-12-25T04:47:46.363Z,13.20
2022-12-25T04:50:12.775Z,12.45
2022-12-25T04:52:40.187Z,10.45
2022-12-25T04:55:07.192Z,10.82
2022-12-25T04:57:33.707Z,9.18
2022-12-25T05:00:00.128Z,8.95
2022-12-25T05:02:26.733Z,8.05
2022-12-25T05:04:53.194Z,8.15
2022-12-25T05:07:19.626Z,8.02
2022-12-25T05:09:45.991Z,7.80
2022-12-25T05:12:12.677Z,7.18
2022-12-25T05:14:40.096Z,7.57
2022-12-25T05:17:08.069Z,8.20
2022-12-25T05:19:34.822Z,9.05
2022-12-25T05:22:01.183Z,8.57
2022-12-25T05:24:27.973Z,10.48
2022-12-25T05:26:54.480Z,9.18
2022-12-25T05:29:20.911Z,9.82
2022-12-25T05:31:47.378Z,9.85
2022-12-25T05:34:13.772Z,11.05
2022-12-25T05:36:40.105Z,11.02
2022-12-25T05:39:06.430Z,12.02
2022-12-25T05:41:34.610Z,12.82
2022-12-25T05:44:01.629Z,13.13
2022-12-25T05:46:28.229Z,14.00
2022-12-25T05:48:54.683Z,15.88
2022-12-25T05:51:21.108Z,15.27
2022-12-25T05:53:47.543Z,15.32
2022-12-25T05:56:13.994Z,14.90
2022-12-25T05:58:40.618Z,17.58
2022-12-25T06:01:18.177Z,17.38
2022-12-25T06:03:45.001Z,16.98
2022-12-25T06:06:11.956Z,17.40
2022-12-25T06:08:38.396Z,16.50
2022-12-25T06:11:05.585Z,16.90
2022-12-25T06:13:32.960Z,18.05
2022-12-25T06:15:59.517Z,18.15
2022-12-25T06:18:26.420Z,16.70
2022-12-25T06:20:52.811Z,18.85
2022-12-25T06:23:19.215Z,17.17
2022-12-25T06:25:45.641Z,17.63
2022-12-25T06:28:12.059Z,16.83
2022-12-25T06:30:38.411Z,17.92
2022-12-25T06:33:04.772Z,17.70
2022-12-25T06:35:31.156Z,16.67
2022-12-25T06:37:57.958Z,15.43
2022-12-25T06:40:24.423Z,16.08
2022-12-25T06:42:51.825Z,14.88
2022-12-25T06:45:18.227Z,14.60
2022-12-25T06:47:44.543Z,14.60
2022-12-25T06:50:10.936Z,14.30
2022-12-25T06:52:37.279Z,14.68
2022-12-25T06:55:03.716Z,15.50
2022-12-25T06:57:30.205Z,14.95
2022-12-25T06:59:56.591Z,17.05
2022-12-25T07:02:24.279Z,15.48
2022-12-25T07:04:51.121Z,15.25
2022-12-25T07:07:17.484Z,15.68
2022-12-25T07:09:43.955Z,15.70
2022-12-25T07:12:13.304Z,14.38
2022-12-25T07:14:39.827Z,15.02
2022-12-25T07:17:06.175Z,14.38
2022-12-25T07:19:32.543Z,14.77
2022-12-25T07:21:58.882Z,16.15
2022-12-25T07:24:25.378Z,13.73
2022-12-25T07:26:53.268Z,15.48
2022-12-25T07:29:19.829Z,13.95
2022-12-25T07:31:46.441Z,15.80
2022-12-25T07:34:12.921Z,15.15
2022-12-25T07:36:39.281Z,14.50
2022-12-25T07:39:05.675Z,12.73
2022-12-25T07:41:32.042Z,12.23
2022-12-25T07:43:58.391Z,15.77
2022-12-25T07:46:24.957Z,13.98
2022-12-25T07:48:51.799Z,17.33
2022-12-25T07:51:18.404Z,15.90
2022-12-25T07:53:44.877Z,14.50
2022-12-25T07:56:15.859Z,13.55
2022-12-25T07:58:42.312Z,15.20
2022-12-25T08:01:13.317Z,15.57
2022-12-25T08:03:40.094Z,14.50
2022-12-25T08:06:08.133Z,16.13
2022-12-25T08:08:35.017Z,16.08
2022-12-25T08:11:01.408Z,15.85
2022-12-25T08:13:30.362Z,16.55
2022-12-25T08:15:57.406Z,16.48
2022-12-25T08:18:29.511Z,15.75
2022-12-25T08:20:56.369Z,14.35
2022-12-25T08:23:22.775Z,14.55
2022-12-25T08:25:49.112Z,14.52
2022-12-25T08:28:15.816Z,13.52
2022-12-25T08:30:42.497Z,12.93
2022-12-25T08:33:09.040Z,13.18
2022-12-25T08:35:35.777Z,9.40
2022-12-25T08:38:02.465Z,8.95
2022-12-25T08:40:28.831Z,7.97
2022-12-25T08:42:58.087Z,7.00
2022-12-25T08:45:27.344Z,6.47
2022-12-25T08:47:56.495Z,6.43
2022-12-25T08:50:23.805Z,7.22
2022-12-25T08:52:50.445Z,8.57
2022-12-25T08:55:17.107Z,8.75
2022-12-25T08:57:43.681Z,8.98
2022-12-25T09:00:10.472Z,9.95
2022-12-25T09:02:37.000Z,9.52
2022-12-25T09:05:03.666Z,10.38
2022-12-25T09:07:29.991Z,11.80
2022-12-25T09:09:56.643Z,11.73
2022-12-25T09:12:23.015Z,12.18
2022-12-25T09:14:49.578Z,11.27
2022-12-25T09:17:15.937Z,10.80
2022-12-25T09:19:42.284Z,11.15
2022-12-25T09:22:08.693Z,12.25
2022-12-25T09:24:35.087Z,11.30
2022-12-25T09:27:01.487Z,10.82
2022-12-25T09:29:28.041Z,12.23
2022-12-25T09:31:54.494Z,11.75
2022-12-25T09:34:20.883Z,11.80
2022-12-25T09:36:47.304Z,11.32
2022-12-25T09:39:13.747Z,11.45
2022-12-25T09:41:59.958Z,12.63
2022-12-25T09:44:32.160Z,12.60
2022-12-25T09:47:01.688Z,11.95
2022-12-25T09:49:39.208Z,14.02
2022-12-25T09:52:11.117Z,14.77
2022-12-25T09:54:51.483Z,14.05
2022-12-25T09:57:18.101Z,12.70
2022-12-25T09:59:45.196Z,11.90
2022-12-25T10:02:33.755Z,11.15
2022-12-25T10:05:18.616Z,12.70
2022-12-25T10:07:53.662Z,12.10
2022-12-25T10:10:39.180Z,13.00
2022-12-25T10:16:07.701Z,11.48
2022-12-25T10:18:49.555Z,10.98
2022-12-25T10:21:18.162Z,10.38
2022-12-25T10:23:48.116Z,11.18
2022-12-25T10:26:15.736Z,11.57
2022-12-25T10:28:43.912Z,11.00
2022-12-25T10:31:37.207Z,10.60
2022-12-25T10:34:04.804Z,10.57
2022-12-25T10:36:31.180Z,10.70
2022-12-25T10:38:57.642Z,11.57
2022-12-25T10:41:30.210Z,10.95
2022-12-25T10:43:57.407Z,9.38
2022-12-25T10:46:26.438Z,11.70
2022-12-25T10:48:54.438Z,10.32
2022-12-25T10:51:36.844Z,12.32
2022-12-25T10:54:04.834Z,12.35
2022-12-25T10:56:31.326Z,11.07
2022-12-25T10:59:04.801Z,11.80
2022-12-25T11:01:31.593Z,11.82
2022-12-25T11:03:58.154Z,13.52
2022-12-25T11:06:26.194Z,11.95
2022-12-25T11:08:55.060Z,11.82
2022-12-25T11:11:21.899Z,12.48
2022-12-25T11:13:49.877Z,13.05
2022-12-25T11:16:25.754Z,13.05
2022-12-25T11:18:53.013Z,12.55
2022-12-25T11:21:39.636Z,13.27
2022-12-25T11:24:07.092Z,12.65
2022-12-25T11:26:48.524Z,13.02
2022-12-25T11:29:33.662Z,12.55
2022-12-25T11:32:00.620Z,13.48
2022-12-25T11:34:30.247Z,13.35
2022-12-25T11:36:58.554Z,14.13
2022-12-25T11:39:28.107Z,13.82
2022-12-25T11:41:59.486Z,15.30
2022-12-25T11:44:32.153Z,14.75
2022-12-25T11:47:02.641Z,16.98
2022-12-25T11:49:29.633Z,16.80
2022-12-25T11:51:56.483Z,15.55
2022-12-25T11:54:33.790Z,17.20
2022-12-25T11:57:02.709Z,16.65
2022-12-25T11:59:38.387Z,13.50
2022-12-25T12:02:10.934Z,14.70
2022-12-25T12:04:42.950Z,12.88
2022-12-25T12:07:25.101Z,14.15
2022-12-25T12:10:10.305Z,13.80
2022-12-25T12:13:09.217Z,13.68
2022-12-25T12:15:43.450Z,12.90
2022-12-25T12:18:09.813Z,12.50
2022-12-25T12:20:36.940Z,14.07
2022-12-25T12:23:04.747Z,13.25
2022-12-25T12:25:31.558Z,14.77
2022-12-25T12:28:04.954Z,13.55
2022-12-25T12:30:35.682Z,13.27
2022-12-25T12:33:03.718Z,14.68
2022-12-25T12:35:38.531Z,14.25
2022-12-25T12:38:18.714Z,14.23
2022-12-25T12:41:01.761Z,13.93
2022-12-25T12:43:46.661Z,14.73
2022-12-25T12:46:16.185Z,13.70
2022-12-25T12:48:43.905Z,15.65
2022-12-25T12:51:11.574Z,15.30
2022-12-25T12:53:39.292Z,19.95
2022-12-25T12:56:13.844Z,17.50
2022-12-25T12:58:45.417Z,15.68
2022-12-25T13:01:21.370Z,16.85
2022-12-25T13:04:06.813Z,16.58
2022-12-25T13:06:37.792Z,17.30
2022-12-25T13:09:29.859Z,18.90
2022-12-25T13:11:56.640Z,18.48
2022-12-25T13:14:24.615Z,17.50
2022-12-25T13:16:54.628Z,18.38
2022-12-25T13:19:22.503Z,18.98
2022-12-25T13:22:15.308Z,20.10
2022-12-25T13:24:41.729Z,18.73
2022-12-25T13:27:24.585Z,20.52
2022-12-25T13:29:50.995Z,20.25
2022-12-25T13:32:20.873Z,21.55
2022-12-25T13:34:48.119Z,23.67
2022-12-25T13:37:16.333Z,23.50
2022-12-25T13:39:48.430Z,21.88
2022-12-25T13:42:16.786Z,22.38
2022-12-25T13:44:54.840Z,22.38
2022-12-25T13:47:31.064Z,21.30
2022-12-25T13:49:58.320Z,21.33
2022-12-25T13:52:32.186Z,22.20
2022-12-25T13:55:00.561Z,20.20
2022-12-25T13:57:29.590Z,21.80
2022-12-25T13:59:56.461Z,22.00
2022-12-25T14:02:25.982Z,22.42
2022-12-25T14:04:52.460Z,20.27
2022-12-25T14:07:23.192Z,22.17
2022-12-25T14:09:53.861Z,21.17
2022-12-25T14:12:21.124Z,21.83
2022-12-25T14:14:47.957Z,21.63
2022-12-25T14:17:14.431Z,20.20
2022-12-25T14:19:41.037Z,20.58
2022-12-25T14:22:10.778Z,22.63
2022-12-25T14:24:37.665Z,20.63
2022-12-25T14:27:05.754Z,20.02
2022-12-25T14:29:36.775Z,20.92
2022-12-25T14:32:07.245Z,20.63
2022-12-25T14:34:34.252Z,19.50
2022-12-25T14:37:01.514Z,19.40
2022-12-25T14:39:35.709Z,21.55
2022-12-25T14:42:10.389Z,18.00
2022-12-25T14:44:39.639Z,21.42
2022-12-25T14:47:14.613Z,22.65
2022-12-25T14:49:41.409Z,24.05
2022-12-25T14:52:28.096Z,22.02
2022-12-25T14:54:57.640Z,21.70
2022-12-25T14:57:28.984Z,22.00
2022-12-25T15:00:15.742Z,19.17
2022-12-25T15:02:44.543Z,20.48
2022-12-25T15:05:24.838Z,23.77
2022-12-25T15:07:58.250Z,23.27
2022-12-25T15:13:13.288Z,24.73
2022-12-25T15:15:41.423Z,23.08
2022-12-25T15:18:07.864Z,23.08
2022-12-25T15:20:34.863Z,25.05
2022-12-25T15:23:19.024Z,22.50
2022-12-25T15:25:47.424Z,25.08
2022-12-25T15:28:14.129Z,24.63
2022-12-25T15:30:40.672Z,22.80
2022-12-25T15:33:07.440Z,22.50
2022-12-25T15:35:34.514Z,24.80
2022-12-25T15:38:01.018Z,22.65
2022-12-25T15:40:27.391Z,23.20
2022-12-25T15:42:56.523Z,23.63
2022-12-25T15:45:25.427Z,21.85
2022-12-25T15:47:51.811Z,18.33
2022-12-25T15:50:18.968Z,21.42
2022-12-25T15:52:45.882Z,17.38
2022-12-25T15:55:12.343Z,17.95
2022-12-25T15:57:40.633Z,20.27
2022-12-25T16:00:08.007Z,20.08
2022-12-25T16:02:34.551Z,20.60
2022-12-25T16:05:05.421Z,18.80
2022-12-25T16:07:36.225Z,20.20
2022-12-25T16:10:02.565Z,21.73
2022-12-25T16:12:29.219Z,21.10
2022-12-25T16:14:55.584Z,24.02
2022-12-25T16:17:21.966Z,24.83
2022-12-25T16:19:48.349Z,26.80
2022-12-25T16:22:19.027Z,23.20
2022-12-25T16:24:45.353Z,27.45
2022-12-25T16:27:11.711Z,28.83
2022-12-25T16:29:38.491Z,27.02
2022-12-25T16:32:04.890Z,30.30
2022-12-25T16:34:31.307Z,26.67
2022-12-25T16:36:57.722Z,25.23
2022-12-25T16:39:24.155Z,34.08
2022-12-25T16:41:50.588Z,26.27
2022-12-25T16:44:17.144Z,22.88
2022-12-25T16:46:43.779Z,22.75
2022-12-25T16:49:10.221Z,21.90
2022-12-25T16:51:36.658Z,22.35
2022-12-25T16:54:03.084Z,22.35
2022-12-25T16:56:31.166Z,22.98
2022-12-25T16:58:57.882Z,22.63
2022-12-25T17:01:25.040Z,20.02
2022-12-25T17:03:51.956Z,19.85
2022-12-25T17:06:19.793Z,20.50
2022-12-25T17:08:46.889Z,20.73
2022-12-25T17:11:13.737Z,23.23
2022-12-25T17:13:40.182Z,22.90
2022-12-25T17:16:17.111Z,25.13
2022-12-25T17:18:43.564Z,24.50
2022-12-25T17:21:10.045Z,23.70
2022-12-25T17:23:37.233Z,24.67
2022-12-25T17:26:04.187Z,28.80
2022-12-25T17:28:30.921Z,42.97
2022-12-25T17:31:04.386Z,46.33
2022-12-25T17:33:31.048Z,37.33
2022-12-25T17:36:03.833Z,35.92
2022-12-25T17:38:30.975Z,30.05
2022-12-25T17:40:57.968Z,25.83
2022-12-25T17:43:24.599Z,23.98
2022-12-25T17:45:51.303Z,27.05
2022-12-25T17:48:17.900Z,26.55
2022-12-25T17:50:44.325Z,27.90
2022-12-25T17:53:11.142Z,27.75
2022-12-25T17:55:41.188Z,29.42
2022-12-25T17:58:08.589Z,27.58
2022-12-25T18:00:35.390Z,29.90
2022-12-25T18:03:08.799Z,30.10
2022-12-25T18:05:37.390Z,25.67
2022-12-25T18:08:05.259Z,29.70
2022-12-25T18:10:35.748Z,26.63
2022-12-25T18:13:02.175Z,27.77
2022-12-25T18:15:28.738Z,25.73
2022-12-25T18:17:55.200Z,31.50
2022-12-25T18:20:21.794Z,29.75
2022-12-25T18:22:48.183Z,31.45
2022-12-25T18:25:14.613Z,32.03
2022-12-25T18:27:41.024Z,32.13
2022-12-25T18:30:07.869Z,32.55
2022-12-25T18:32:34.240Z,29.55
2022-12-25T18:35:00.651Z,32.42
2022-12-25T18:37:27.984Z,30.83
2022-12-25T18:39:54.529Z,31.30
2022-12-25T18:42:39.265Z,31.15
2022-12-25T18:45:07.824Z,33.73
2022-12-25T18:47:34.280Z,29.77
2022-12-25T18:50:01.109Z,34.67
2022-12-25T18:52:47.308Z,31.25
2022-12-25T18:55:14.300Z,33.55
2022-12-25T18:57:40.900Z,31.77
2022-12-25T19:00:07.594Z,34.13
2022-12-25T19:02:34.059Z,32.22
2022-12-25T19:05:00.711Z,31.55
2022-12-25T19:07:27.283Z,31.52
2022-12-25T19:09:53.932Z,31.35
2022-12-25T19:12:20.413Z,31.52
2022-12-25T19:14:48.151Z,30.60
2022-12-25T19:17:14.883Z,30.02
2022-12-25T19:19:41.355Z,33.90
2022-12-25T19:22:08.090Z,37.58
2022-12-25T19:24:34.592Z,34.38
2022-12-25T19:27:01.141Z,33.97
2022-12-25T19:29:27.625Z,29.15
2022-12-25T19:31:54.169Z,33.35
2022-12-25T19:34:20.745Z,28.52
2022-12-25T19:36:47.084Z,31.63
2022-12-25T19:39:13.563Z,33.10
2022-12-25T19:41:40.473Z,33.42
2022-12-25T19:44:07.532Z,29.55
2022-12-25T19:46:34.917Z,31.15
2022-12-25T19:49:04.596Z,29.02
2022-12-25T19:51:35.109Z,28.00
2022-12-25T19:54:01.784Z,29.98
2022-12-25T19:56:28.618Z,28.70
2022-12-25T19:58:55.529Z,26.92
2022-12-25T20:01:23.104Z,25.17
2022-12-25T20:03:50.062Z,27.25
2022-12-25T20:06:24.954Z,26.30
2022-12-25T20:08:52.748Z,25.35
2022-12-25T20:11:19.727Z,25.98
2022-12-25T20:13:46.099Z,25.02
2022-12-25T20:16:12.656Z,26.42
2022-12-25T20:18:39.437Z,25.95
2022-12-25T20:21:07.327Z,23.15
2022-12-25T20:23:33.755Z,22.98
2022-12-25T20:26:01.136Z,25.70
2022-12-25T20:28:28.451Z,24.50
2022-12-25T20:30:55.403Z,23.23
2022-12-25T20:33:21.879Z,22.23
2022-12-25T20:35:48.801Z,25.95
2022-12-25T20:38:15.618Z,24.77
2022-12-25T20:41:24.511Z,24.33
2022-12-25T20:43:28.807Z,26.25
2022-12-25T20:45:55.419Z,22.88
2022-12-25T20:48:21.958Z,25.83
2022-12-25T20:50:48.385Z,26.13
2022-12-25T20:53:14.894Z,23.73
2022-12-25T20:55:48.256Z,21.98
2022-12-25T20:58:15.283Z,23.05
2022-12-25T21:00:42.458Z,23.90
2022-12-25T21:03:09.125Z,23.17
2022-12-25T21:05:36.071Z,24.67
2022-12-25T21:08:02.505Z,23.38
2022-12-25T21:10:29.010Z,23.40
2022-12-25T21:12:55.488Z,24.58
2022-12-25T21:15:21.911Z,26.50
2022-12-25T21:17:48.271Z,25.08
2022-12-25T21:20:14.873Z,24.27
2022-12-25T21:22:41.275Z,26.27
2022-12-25T21:25:07.826Z,25.65
2022-12-25T21:27:34.230Z,25.88
2022-12-25T21:30:15.473Z,25.75
2022-12-25T21:33:01.246Z,25.73
2022-12-25T21:35:27.650Z,25.00
2022-12-25T21:37:54.244Z,23.92
2022-12-25T21:40:20.584Z,23.77
2022-12-25T21:42:47.076Z,24.52
2022-12-25T21:45:13.444Z,24.48
2022-12-25T21:48:01.494Z,26.45
2022-12-25T21:50:45.127Z,24.75
2022-12-25T21:53:15.085Z,26.40
2022-12-25T21:55:41.472Z,27.15
2022-12-25T21:58:07.989Z,26.08
2022-12-25T22:00:34.343Z,24.67
2022-12-25T22:03:00.878Z,25.60
2022-12-25T22:05:46.066Z,26.25
2022-12-25T22:08:12.495Z,27.90
2022-12-25T22:10:38.886Z,27.17
2022-12-25T22:13:24.082Z,28.05
2022-12-25T22:16:08.963Z,28.10
2022-12-25T22:18:54.134Z,30.73
2022-12-25T22:21:21.123Z,30.58
2022-12-25T22:23:48.012Z,28.80
2022-12-25T22:26:20.444Z,30.45
2022-12-25T22:28:47.183Z,30.25
2022-12-25T22:31:14.272Z,31.38
2022-12-25T22:33:40.860Z,31.73
2022-12-25T22:36:08.055Z,29.52
2022-12-25T22:38:34.648Z,29.80
2022-12-25T22:41:07.286Z,29.58
2022-12-25T22:44:14.351Z,28.98
2022-12-25T22:46:20.387Z,30.38
2022-12-25T22:48:46.967Z,28.63
2022-12-25T22:51:13.353Z,30.98
2022-12-25T22:53:39.766Z,29.23
2022-12-25T22:56:08.303Z,27.92
2022-12-25T22:58:34.845Z,30.77
2022-12-25T23:01:01.509Z,30.05
2022-12-25T23:03:28.086Z,30.65
2022-12-25T23:05:55.191Z,31.17
2022-12-25T23:08:22.171Z,32.58
2022-12-25T23:10:48.606Z,31.73
2022-12-25T23:13:34.197Z,32.58
2022-12-25T23:18:45.670Z,33.00
2022-12-25T23:21:34.834Z,32.85
2022-12-25T23:24:20.027Z,34.60
2022-12-25T23:26:46.472Z,33.78
2022-12-25T23:29:31.432Z,31.90
2022-12-25T23:31:58.373Z,33.97
2022-12-25T23:34:24.740Z,33.55
2022-12-25T23:36:51.118Z,37.17
2022-12-25T23:39:17.500Z,39.22
2022-12-25T23:41:44.176Z,38.90
2022-12-25T23:44:11.729Z,37.60
2022-12-25T23:46:38.497Z,39.83
2022-12-25T23:49:05.093Z,38.80
2022-12-25T23:51:31.494Z,40.88
2022-12-25T23:53:57.869Z,41.60
2022-12-25T23:56:24.351Z,45.05
2022-12-25T23:58:52.005Z,40.60
